Time;durP1;ratioP1;P1;durP2;ratioP2;P2;SDS_P1;SDS_P2;PMS_P1;PMS_P2;Temp;Humidity;BMP_temperature;BMP_pressure;BME280_temperature;BME280_humidity;BME280_pressure;Samples;Min_cycle;Max_cycle;Signal;HPM_P1;HPM_P2
2022/04/14 00:00:00;;;;;;;22.23;13.77;;;11.60;1.00;;;;;;5114263;28;20187;-84
2022/04/14 00:02:27;;;;;;;25.07;13.77;;;11.60;1.00;;;;;;5114275;28;20192;-84
2022/04/14 00:04:54;;;;;;;23.87;14.10;;;11.60;1.00;;;;;;5114149;28;20531;-84
2022/04/14 00:07:21;;;;;;;22.73;13.53;;;11.60;1.00;;;;;;5113196;28;20642;-84
2022/04/14 00:09:48;;;;;;;21.97;13.63;;;11.60;1.00;;;;;;5114007;28;20651;-84
2022/04/14 00:12:15;;;;;;;22.77;13.87;;;11.70;1.00;;;;;;5113741;28;20226;-85
2022/04/14 00:14:44;;;;;;;24.97;14.17;;;11.70;1.00;;;;;;5114115;28;20187;-84
2022/04/14 00:17:12;;;;;;;24.67;14.60;;;11.70;1.00;;;;;;5114044;28;20183;-85
2022/04/14 00:19:39;;;;;;;25.00;14.50;;;11.70;1.00;;;;;;5114286;28;20596;-84
2022/04/14 00:22:06;;;;;;;24.27;14.83;;;11.60;1.00;;;;;;5114014;28;20263;-84
2022/04/14 00:24:33;;;;;;;20.30;14.10;;;11.60;1.00;;;;;;5113783;28;20229;-85
2022/04/14 00:27:00;;;;;;;22.93;13.80;;;11.60;1.00;;;;;;5113471;28;20199;-84
2022/04/14 00:29:27;;;;;;;21.57;13.80;;;11.60;1.00;;;;;;5114087;28;20198;-85
2022/04/14 00:31:55;;;;;;;23.23;14.10;;;11.50;1.00;;;;;;5104532;28;20270;-85
2022/04/14 00:34:22;;;;;;;22.87;13.17;;;11.50;1.00;;;;;;5093369;28;20187;-84
2022/04/14 00:36:49;;;;;;;25.53;15.23;;;11.50;1.00;;;;;;5093317;28;20258;-84
2022/04/14 00:39:16;;;;;;;26.47;14.87;;;11.50;1.00;;;;;;5093176;28;20598;-84
2022/04/14 00:41:43;;;;;;;25.20;15.10;;;11.50;1.00;;;;;;5093123;28;20639;-84
2022/04/14 00:44:10;;;;;;;22.87;14.03;;;11.40;1.00;;;;;;5093070;28;20698;-84
2022/04/14 00:46:37;;;;;;;26.50;15.10;;;11.40;1.00;;;;;;5093324;28;20211;-85
2022/04/14 00:49:06;;;;;;;25.10;15.10;;;11.40;1.00;;;;;;5093052;28;20260;-84
2022/04/14 00:51:33;;;;;;;24.73;14.93;;;11.40;1.00;;;;;;5092738;28;20192;-84
2022/04/14 00:54:00;;;;;;;24.93;14.60;;;11.40;1.00;;;;;;5093005;28;20194;-84
2022/04/14 00:56:27;;;;;;;22.77;14.07;;;11.40;1.00;;;;;;5092589;28;20249;-84
2022/04/14 00:58:54;;;;;;;25.77;14.27;;;11.40;1.00;;;;;;5092908;28;20187;-84
2022/04/14 01:01:21;;;;;;;24.03;14.67;;;11.30;1.00;;;;;;5092788;28;20192;-84
2022/04/14 01:03:49;;;;;;;21.23;14.53;;;11.30;1.00;;;;;;5092508;28;20230;-84
2022/04/14 01:06:19;;;;;;;22.97;13.97;;;11.30;1.00;;;;;;5092755;28;20218;-84
2022/04/14 01:09:16;;;;;;;27.50;14.50;;;11.20;1.00;;;;;;5092483;28;20654;-84
2022/04/14 01:11:35;;;;;;;22.60;15.23;;;11.20;1.00;;;;;;5092323;28;20194;-84
2022/04/14 01:14:02;;;;;;;22.60;13.90;;;11.20;1.00;;;;;;5092876;28;20244;-84
2022/04/14 01:16:29;;;;;;;24.17;13.97;;;11.20;1.00;;;;;;5092723;28;20190;-85
2022/04/14 01:18:56;;;;;;;28.13;14.53;;;11.20;1.00;;;;;;5092240;28;20656;-85
2022/04/14 01:21:28;;;;;;;26.60;15.10;;;11.10;1.00;;;;;;5092284;28;20634;-85
2022/04/14 01:23:56;;;;;;;24.50;14.73;;;11.10;1.00;;;;;;5092415;28;20214;-85
2022/04/14 01:26:23;;;;;;;25.13;15.00;;;11.10;1.00;;;;;;5092513;28;20273;-85
2022/04/14 01:28:50;;;;;;;26.10;15.07;;;11.10;1.00;;;;;;5092602;28;20235;-85
2022/04/14 01:31:17;;;;;;;26.43;14.77;;;11.00;1.00;;;;;;5092803;28;20194;-90
2022/04/14 01:33:44;;;;;;;25.77;14.63;;;11.00;1.00;;;;;;5093142;28;20187;-85
2022/04/14 01:36:11;;;;;;;26.87;14.60;;;11.00;1.00;;;;;;5092608;28;20712;-86
2022/04/14 01:38:38;;;;;;;26.47;15.40;;;11.10;1.00;;;;;;5093167;28;20198;-87
2022/04/14 01:41:07;;;;;;;26.07;15.50;;;11.00;1.00;;;;;;5093197;28;20695;-84
2022/04/14 01:43:34;;;;;;;26.20;15.07;;;11.00;1.00;;;;;;5092832;28;20581;-85
2022/04/14 01:46:01;;;;;;;23.77;14.87;;;11.00;1.00;;;;;;5092934;28;20608;-87
2022/04/14 01:48:27;;;;;;;25.47;15.03;;;11.00;1.00;;;;;;5093217;28;20189;-88
2022/04/14 01:50:54;;;;;;;26.13;16.10;;;11.00;1.00;;;;;;5093127;28;20240;-89
2022/04/14 01:53:22;;;;;;;27.30;16.20;;;10.90;1.00;;;;;;5093266;28;20198;-88
2022/04/14 01:55:49;;;;;;;27.67;15.03;;;10.90;1.00;;;;;;5093149;28;20195;-87
2022/04/14 01:58:17;;;;;;;28.20;15.57;;;10.90;1.00;;;;;;5093234;28;20191;-87
2022/04/14 02:00:44;;;;;;;22.27;15.03;;;10.90;1.00;;;;;;5092882;28;20194;-87
2022/04/14 02:03:11;;;;;;;30.63;17.13;;;10.80;1.00;;;;;;5092660;28;20198;-88
2022/04/14 02:05:38;;;;;;;38.43;20.07;;;10.80;1.00;;;;;;5092873;28;20262;-88
2022/04/14 02:08:05;;;;;;;36.83;18.97;;;10.80;1.00;;;;;;5092774;28;20183;-85
2022/04/14 02:10:32;;;;;;;35.87;18.87;;;10.80;1.00;;;;;;5092831;28;20638;-89
2022/04/14 02:12:59;;;;;;;28.70;16.67;;;10.80;1.00;;;;;;5092748;28;20256;-86
2022/04/14 02:15:28;;;;;;;29.37;16.43;;;10.70;1.00;;;;;;5093142;28;20199;-85
2022/04/14 02:17:55;;;;;;;30.20;17.63;;;10.70;1.00;;;;;;5092989;28;20190;-90
2022/04/14 02:20:22;;;;;;;33.73;19.53;;;10.70;1.00;;;;;;5092443;28;20185;-88
2022/04/14 02:22:49;;;;;;;25.40;15.30;;;10.70;1.00;;;;;;5092328;28;20257;-88
2022/04/14 02:25:16;;;;;;;31.83;17.17;;;10.70;1.00;;;;;;5092743;28;20187;-89
2022/04/14 02:27:43;;;;;;;28.93;16.23;;;10.70;1.00;;;;;;5092942;28;20236;-92
2022/04/14 02:30:11;;;;;;;30.33;16.30;;;10.70;1.00;;;;;;5094482;28;20710;-88
2022/04/14 02:32:39;;;;;;;28.30;16.23;;;10.60;1.00;;;;;;5096601;28;20186;-86
2022/04/14 02:35:07;;;;;;;25.63;15.83;;;10.60;1.00;;;;;;5096637;28;20254;-85
2022/04/14 02:37:34;;;;;;;29.10;16.63;;;10.60;1.00;;;;;;5096241;28;20242;-83
2022/04/14 02:40:01;;;;;;;27.10;15.83;;;10.50;1.00;;;;;;5096332;28;20264;-86
2022/04/14 02:42:28;;;;;;;24.73;15.97;;;10.50;1.00;;;;;;5096180;28;20670;-85
2022/04/14 02:44:55;;;;;;;25.83;15.17;;;10.40;1.00;;;;;;5096037;28;20224;-88
2022/04/14 02:47:22;;;;;;;28.77;17.23;;;10.40;1.00;;;;;;5095800;28;20212;-89
2022/04/14 02:49:50;;;;;;;28.87;16.70;;;10.30;1.00;;;;;;5095923;28;20239;-84
2022/04/14 02:52:17;;;;;;;27.37;16.03;;;10.30;1.00;;;;;;5095922;28;20247;-87
2022/04/14 02:54:44;;;;;;;29.17;16.10;;;10.20;1.00;;;;;;5095850;28;20188;-87
2022/04/14 02:57:11;;;;;;;25.80;16.20;;;10.10;1.00;;;;;;5095498;28;20244;-84
2022/04/14 02:59:38;;;;;;;29.23;16.50;;;10.10;1.00;;;;;;5095533;28;20573;-87
2022/04/14 03:02:05;;;;;;;24.60;15.97;;;10.10;1.00;;;;;;5095847;28;20183;-87
2022/04/14 03:04:32;;;;;;;32.57;17.23;;;10.00;1.00;;;;;;5095647;28;20194;-84
2022/04/14 03:07:01;;;;;;;26.40;16.73;;;10.00;1.00;;;;;;5095651;28;20215;-83
2022/04/14 03:09:28;;;;;;;28.67;16.87;;;9.90;1.00;;;;;;5095623;28;20185;-86
2022/04/14 03:11:55;;;;;;;29.57;17.13;;;9.90;1.00;;;;;;5095398;28;20211;-85
2022/04/14 03:14:22;;;;;;;29.33;17.83;;;9.80;1.00;;;;;;5095824;28;20199;-88
2022/04/14 03:16:49;;;;;;;29.43;16.67;;;9.80;1.00;;;;;;5095962;28;20195;-88
2022/04/14 03:19:16;;;;;;;29.63;17.17;;;9.70;1.00;;;;;;5095065;28;20249;-88
2022/04/14 03:21:43;;;;;;;27.60;17.33;;;9.70;1.00;;;;;;5095277;28;20631;-86
2022/04/14 03:24:12;;;;;;;28.30;16.97;;;9.70;1.00;;;;;;5095238;28;20231;-87
2022/04/14 03:26:39;;;;;;;28.53;16.83;;;9.60;1.00;;;;;;5095122;28;20248;-85
2022/04/14 03:29:06;;;;;;;30.13;17.00;;;9.70;1.00;;;;;;5094654;28;20235;-84
2022/04/14 03:31:33;;;;;;;27.73;17.03;;;9.60;1.00;;;;;;5094738;28;20198;-84
2022/04/14 03:34:00;;;;;;;28.03;16.90;;;9.60;1.00;;;;;;5094526;28;20187;-85
2022/04/14 03:36:27;;;;;;;26.53;15.87;;;9.60;1.00;;;;;;5094103;28;20716;-85
2022/04/14 03:38:54;;;;;;;29.90;17.53;;;9.60;1.00;;;;;;5094304;28;20578;-84
2022/04/14 03:41:22;;;;;;;28.70;17.17;;;9.60;1.00;;;;;;5094563;28;20237;-85
2022/04/14 03:43:49;;;;;;;27.00;16.50;;;9.60;1.00;;;;;;5094356;28;20188;-84
2022/04/14 03:46:18;;;;;;;29.70;17.20;;;9.50;1.00;;;;;;5093766;28;20715;-84
2022/04/14 03:48:45;;;;;;;29.07;17.10;;;9.50;1.00;;;;;;5094271;28;20222;-84
2022/04/14 03:51:14;;;;;;;30.43;17.30;;;9.50;1.00;;;;;;5094134;28;20198;-84
2022/04/14 03:53:41;;;;;;;33.97;17.77;;;9.50;1.00;;;;;;5094699;28;20191;-84
2022/04/14 03:56:08;;;;;;;27.60;17.10;;;9.40;1.00;;;;;;5093691;28;20188;-85
2022/04/14 03:58:36;;;;;;;28.30;18.07;;;9.40;1.00;;;;;;5093663;28;20634;-84
2022/04/14 04:01:03;;;;;;;29.47;17.20;;;9.40;1.00;;;;;;5093895;28;20241;-84
2022/04/14 04:03:30;;;;;;;29.63;16.37;;;9.30;1.00;;;;;;5093877;28;20637;-84
2022/04/14 04:05:57;;;;;;;31.07;17.77;;;9.30;1.00;;;;;;5093547;28;20252;-84
2022/04/14 04:08:24;;;;;;;33.57;18.90;;;9.30;1.00;;;;;;5094847;28;20636;-84
2022/04/14 04:10:51;;;;;;;29.03;17.80;;;9.30;1.00;;;;;;5093744;28;20237;-85
2022/04/14 04:13:18;;;;;;;29.07;17.70;;;9.30;1.00;;;;;;5093657;28;20191;-84
2022/04/14 04:15:46;;;;;;;30.90;18.20;;;9.20;1.00;;;;;;5093694;28;20186;-84
2022/04/14 04:18:14;;;;;;;29.20;17.30;;;9.30;1.00;;;;;;5093214;28;20236;-85
2022/04/14 04:20:40;;;;;;;29.37;16.07;;;9.30;1.00;;;;;;5093628;28;20188;-85
2022/04/14 04:23:08;;;;;;;30.77;18.27;;;9.30;1.00;;;;;;5093072;28;20223;-85
2022/04/14 04:25:35;;;;;;;30.93;16.70;;;9.40;1.00;;;;;;5093497;28;20188;-85
2022/04/14 04:28:02;;;;;;;29.53;17.20;;;9.40;1.00;;;;;;5093316;28;20270;-84
2022/04/14 04:30:29;;;;;;;29.53;17.00;;;9.50;1.00;;;;;;5093088;28;20192;-84
2022/04/14 04:32:57;;;;;;;28.40;17.50;;;9.50;1.00;;;;;;5093274;28;20192;-85
2022/04/14 04:35:24;;;;;;;27.20;17.33;;;9.50;1.00;;;;;;5093430;28;20188;-86
2022/04/14 04:37:51;;;;;;;28.37;17.33;;;9.50;1.00;;;;;;5093335;28;20227;-85
2022/04/14 04:40:18;;;;;;;27.50;16.90;;;9.60;1.00;;;;;;5092854;28;20640;-85
2022/04/14 04:42:45;;;;;;;31.50;17.20;;;9.60;1.00;;;;;;5092883;28;20213;-84
2022/04/14 04:45:12;;;;;;;33.15;19.40;;;9.70;1.00;;;;;;5092553;28;20830;-84
2022/04/14 04:47:39;;;;;;;34.43;18.37;;;9.80;1.00;;;;;;5092643;28;20252;-84
2022/04/14 04:50:08;;;;;;;28.53;16.93;;;9.90;1.00;;;;;;5092684;28;20238;-85
2022/04/14 04:52:36;;;;;;;31.60;17.83;;;10.00;1.00;;;;;;5092632;28;20193;-85
2022/04/14 04:55:03;;;;;;;30.37;17.57;;;10.10;1.00;;;;;;5092926;28;20194;-85
2022/04/14 04:57:30;;;;;;;27.87;17.10;;;10.20;1.00;;;;;;5092947;28;20242;-85
2022/04/14 04:59:57;;;;;;;28.40;17.60;;;10.30;1.00;;;;;;5092841;28;20186;-85
2022/04/14 05:02:24;;;;;;;30.57;18.03;;;10.50;1.00;;;;;;5092574;28;20227;-85
2022/04/14 05:04:52;;;;;;;28.93;18.77;;;10.70;1.00;;;;;;5092885;28;20219;-86
2022/04/14 05:07:20;;;;;;;31.37;17.80;;;10.90;1.00;;;;;;5092761;28;20215;-87
2022/04/14 05:09:47;;;;;;;27.60;16.90;;;11.20;1.00;;;;;;5092942;28;20597;-87
2022/04/14 05:12:14;;;;;;;28.20;16.30;;;11.30;1.00;;;;;;5092744;28;20250;-87
2022/04/14 05:14:41;;;;;;;28.90;17.47;;;11.40;1.00;;;;;;5092887;28;20187;-88
2022/04/14 05:17:08;;;;;;;34.47;20.07;;;11.60;1.00;;;;;;5092719;28;20257;-87
2022/04/14 05:19:35;;;;;;;41.23;19.33;;;11.70;1.00;;;;;;5092686;28;20197;-88
2022/04/14 05:22:02;;;;;;;102.77;42.07;;;11.90;1.00;;;;;;5092693;28;20218;-88
2022/04/14 05:24:32;;;;;;;76.20;34.93;;;12.20;1.00;;;;;;5092629;28;20276;-88
2022/04/14 05:26:59;;;;;;;57.07;27.30;;;12.50;1.00;;;;;;5092786;28;20211;-88
2022/04/14 05:29:26;;;;;;;43.00;20.70;;;12.90;1.00;;;;;;5092545;28;20188;-88
2022/04/14 05:31:53;;;;;;;35.77;18.77;;;13.40;1.00;;;;;;5092579;28;20236;-89
2022/04/14 05:34:20;;;;;;;28.80;17.20;;;13.70;1.00;;;;;;5092544;28;20190;-88
2022/04/14 05:36:47;;;;;;;28.83;17.40;;;14.10;1.00;;;;;;5092493;28;20243;-88
2022/04/14 05:39:14;;;;;;;31.70;17.60;;;14.60;1.00;;;;;;5092520;28;20192;-88
2022/04/14 05:41:42;;;;;;;29.85;16.10;;;15.20;1.00;;;;;;5092472;28;20186;-88
2022/04/14 05:44:09;;;;;;;32.33;17.10;;;15.50;1.00;;;;;;5092297;28;20231;-88
2022/04/14 05:46:37;;;;;;;34.03;19.05;;;15.70;1.00;;;;;;5092040;28;20674;-88
2022/04/14 05:49:04;;;;;;;34.33;19.45;;;15.90;1.00;;;;;;5092038;28;20203;-88
2022/04/14 05:51:31;;;;;;;40.13;22.52;;;16.00;1.00;;;;;;5092565;28;20593;-89
2022/04/14 05:53:57;;;;;;;40.38;19.35;;;16.20;1.00;;;;;;5092050;28;20619;-86
2022/04/14 05:56:25;;;;;;;36.45;19.45;;;16.40;1.00;;;;;;5091943;28;20651;-86
2022/04/14 05:58:54;;;;;;;41.55;24.60;;;16.50;1.00;;;;;;5092415;28;20678;-88
2022/04/14 06:01:21;;;;;;;41.67;26.50;;;16.50;1.00;;;;;;5092012;28;20596;-88
2022/04/14 06:03:48;;;;;;;51.88;36.22;;;16.60;1.00;;;;;;5092344;28;20184;-88
2022/04/14 06:06:15;;;;;;;32.95;24.05;;;16.60;1.00;;;;;;5095969;28;20264;-88
2022/04/14 06:08:43;;;;;;;29.50;20.73;;;16.50;1.00;;;;;;5096181;28;20261;-88
2022/04/14 06:11:10;;;;;;;30.83;18.98;;;16.60;1.00;;;;;;5095883;28;20574;-88
2022/04/14 06:13:37;;;;;;;29.17;18.85;;;16.80;1.00;;;;;;5096054;28;20278;-88
2022/04/14 06:16:06;;;;;;;30.15;19.80;;;16.90;1.00;;;;;;5095958;28;20622;-87
2022/04/14 06:18:33;;;;;;;27.27;18.58;;;17.00;1.00;;;;;;5096212;28;20663;-88
2022/04/14 06:21:00;;;;;;;28.15;19.55;;;17.10;1.00;;;;;;5096354;28;20183;-88
2022/04/14 06:23:27;;;;;;;28.10;17.38;;;17.30;1.00;;;;;;5095993;28;20219;-87
2022/04/14 06:25:55;;;;;;;25.52;17.77;;;17.70;1.00;;;;;;5095840;28;20215;-88
2022/04/14 06:28:22;;;;;;;25.88;17.75;;;18.20;1.00;;;;;;5095646;28;20219;-88
2022/04/14 06:30:50;;;;;;;30.08;20.05;;;18.60;1.00;;;;;;5095348;28;20226;-88
2022/04/14 06:33:20;;;;;;;30.27;17.83;;;19.00;1.00;;;;;;5095840;28;20206;-87
2022/04/14 06:35:47;;;;;;;23.40;17.17;;;19.40;1.00;;;;;;5095355;28;20180;-86
2022/04/14 06:38:14;;;;;;;28.30;18.55;;;19.90;1.00;;;;;;5095725;28;20276;-87
2022/04/14 06:40:41;;;;;;;35.00;22.92;;;20.50;1.00;;;;;;5095668;28;20219;-87
2022/04/14 06:43:08;;;;;;;132.63;50.90;;;21.20;1.00;;;;;;5095158;28;20527;-87
2022/04/14 06:45:35;;;;;;;30.90;19.50;;;21.80;1.00;;;;;;5095643;28;20184;-88
2022/04/14 06:48:03;;;;;;;27.13;18.83;;;22.30;1.00;;;;;;5095493;28;20207;-86
2022/04/14 06:50:31;;;;;;;27.38;18.75;;;22.80;1.00;;;;;;5095315;28;20264;-85
2022/04/14 06:52:58;;;;;;;26.10;18.45;;;23.40;1.00;;;;;;5094952;28;20705;-86
2022/04/14 06:55:25;;;;;;;32.03;19.17;;;23.80;1.00;;;;;;5095193;28;20187;-86
2022/04/14 06:57:58;;;;;;;29.27;19.40;;;24.10;1.00;;;;;;5094917;28;20192;-85
2022/04/14 07:00:26;;;;;;;28.00;18.40;;;24.20;1.00;;;;;;5094823;28;20620;-86
2022/04/14 07:02:54;;;;;;;29.42;20.30;;;24.40;1.00;;;;;;5094791;28;20190;-86
2022/04/14 07:05:23;;;;;;;26.33;18.42;;;24.50;1.00;;;;;;5095167;28;20192;-86
2022/04/14 07:07:52;;;;;;;28.10;17.92;;;24.40;1.00;;;;;;5094889;28;20217;-86
2022/04/14 07:10:19;;;;;;;30.45;18.58;;;24.60;1.00;;;;;;5094581;28;20561;-86
2022/04/14 07:12:46;;;;;;;26.48;18.48;;;24.90;1.00;;;;;;5094617;28;20542;-86
2022/04/14 07:15:14;;;;;;;26.83;19.63;;;25.00;1.00;;;;;;5094226;28;20241;-86
2022/04/14 07:17:41;;;;;;;71.05;39.03;;;25.00;1.00;;;;;;5094543;28;20199;-85
2022/04/14 07:20:10;;;;;;;37.92;21.55;;;25.30;1.00;;;;;;5095191;28;20192;-86
2022/04/14 07:22:46;;;;;;;25.35;17.88;;;25.60;1.00;;;;;;5094562;28;20287;-86
2022/04/14 07:25:15;;;;;;;28.27;20.60;;;25.90;1.00;;;;;;5094728;28;20183;-86
2022/04/14 07:27:43;;;;;;;66.93;39.03;;;26.00;1.00;;;;;;5094550;28;20239;-86
2022/04/14 07:30:11;;;;;;;25.98;19.67;;;26.10;1.00;;;;;;5094312;28;20709;-86
2022/04/14 07:32:40;;;;;;;27.90;19.40;;;26.00;1.00;;;;;;5094448;28;20248;-86
2022/04/14 07:35:08;;;;;;;38.10;24.08;;;25.90;1.00;;;;;;5094665;28;20253;-86
2022/04/14 07:37:36;;;;;;;96.75;25.30;;;25.80;1.00;;;;;;5094489;28;20209;-86
2022/04/14 07:40:03;;;;;;;25.80;19.17;;;25.80;1.00;;;;;;5094411;28;20191;-86
2022/04/14 07:42:37;;;;;;;34.25;23.20;;;25.90;1.00;;;;;;5094287;28;20196;-86
2022/04/14 07:45:05;;;;;;;40.15;27.10;;;26.30;1.00;;;;;;5094299;28;20229;-86
2022/04/14 07:47:32;;;;;;;31.23;21.77;;;26.80;1.00;;;;;;5094173;28;20264;-86
2022/04/14 07:49:59;;;;;;;31.33;19.25;;;27.20;1.00;;;;;;5093868;28;20183;-86
2022/04/14 07:52:26;;;;;;;30.50;19.77;;;27.50;1.00;;;;;;5093890;28;20191;-86
2022/04/14 07:54:53;;;;;;;24.05;18.33;;;27.90;1.00;;;;;;5093844;28;20241;-86
2022/04/14 07:57:20;;;;;;;24.92;18.48;;;28.10;1.00;;;;;;5094105;28;20252;-86
2022/04/14 07:59:50;;;;;;;24.92;19.48;;;28.30;1.00;;;;;;5094137;28;20184;-86
2022/04/14 08:02:19;;;;;;;24.20;17.98;;;28.20;1.00;;;;;;5094032;28;20237;-86
2022/04/14 08:04:46;;;;;;;23.52;18.10;;;27.90;1.00;;;;;;5093581;28;20529;-86
2022/04/14 08:07:13;;;;;;;22.77;18.50;;;28.00;1.00;;;;;;5093562;28;20183;-86
2022/04/14 08:09:41;;;;;;;26.48;18.52;;;27.70;1.00;;;;;;5094227;28;20571;-86
2022/04/14 08:12:09;;;;;;;26.90;18.88;;;27.30;1.00;;;;;;5093632;28;20724;-87
2022/04/14 08:14:36;;;;;;;22.92;18.38;;;27.10;1.00;;;;;;5093498;28;20582;-86
2022/04/14 08:17:05;;;;;;;24.90;18.55;;;26.90;1.00;;;;;;5093712;28;20196;-87
2022/04/14 08:19:34;;;;;;;24.45;18.60;;;26.50;1.00;;;;;;5093669;28;20202;-87
2022/04/14 08:22:01;;;;;;;26.08;18.90;;;26.10;1.00;;;;;;5093270;28;20212;-86
2022/04/14 08:24:28;;;;;;;23.38;18.20;;;26.00;1.00;;;;;;5093625;28;20172;-86
2022/04/14 08:26:55;;;;;;;24.05;18.35;;;26.00;1.00;;;;;;5092603;28;20606;-86
2022/04/14 08:29:22;;;;;;;25.50;19.45;;;26.20;1.00;;;;;;5093074;28;20207;-87
2022/04/14 08:31:50;;;;;;;28.20;19.65;;;26.50;1.00;;;;;;5093444;28;20241;-86
2022/04/14 08:34:18;;;;;;;25.42;18.77;;;26.60;1.00;;;;;;5093222;28;20636;-85
2022/04/14 08:36:45;;;;;;;25.80;18.52;;;26.70;1.00;;;;;;5093465;28;20697;-86
2022/04/14 08:39:13;;;;;;;26.35;18.98;;;26.70;1.00;;;;;;5112213;28;20219;-89
2022/04/14 08:41:47;;;;;;;26.88;19.17;;;26.70;1.00;;;;;;5115993;28;20180;-90
2022/04/14 08:44:17;;;;;;;25.70;18.95;;;26.30;1.00;;;;;;5115564;28;20206;-86
2022/04/14 08:46:45;;;;;;;28.75;19.45;;;26.00;1.00;;;;;;5116261;28;20212;-92
2022/04/14 08:49:14;;;;;;;30.27;20.65;;;25.90;1.00;;;;;;5115624;28;20211;-91
2022/04/14 08:51:44;;;;;;;28.40;20.45;;;25.80;1.00;;;;;;5115608;28;20187;-91
2022/04/14 08:54:19;;;;;;;30.70;19.73;;;25.50;1.00;;;;;;5116018;28;20200;-90
2022/04/14 08:56:47;;;;;;;26.17;19.33;;;25.20;1.00;;;;;;5116013;28;20175;-93
2022/04/14 08:59:19;;;;;;;31.08;20.92;;;25.30;1.00;;;;;;5114989;28;20247;-90
2022/04/14 09:01:49;;;;;;;29.05;20.33;;;25.10;1.00;;;;;;5115437;28;20190;-88
2022/04/14 09:04:19;;;;;;;26.80;20.05;;;25.00;1.00;;;;;;5115420;28;20251;-92
2022/04/14 09:06:49;;;;;;;28.50;20.48;;;25.00;1.00;;;;;;5115559;28;20203;-94
2022/04/14 09:09:16;;;;;;;30.25;20.98;;;25.10;1.00;;;;;;5114878;28;20235;-91
2022/04/14 09:11:47;;;;;;;46.28;21.15;;;25.00;1.00;;;;;;5115078;28;20183;-91
2022/04/14 09:14:15;;;;;;;30.85;20.80;;;24.80;1.00;;;;;;5115868;28;20235;-89
2022/04/14 09:16:43;;;;;;;28.77;21.02;;;24.70;1.00;;;;;;5115409;28;20251;-91
2022/04/14 09:19:13;;;;;;;27.13;20.30;;;24.60;1.00;;;;;;5115214;28;20575;-90
2022/04/14 09:21:59;;;;;;;29.35;20.95;;;24.60;1.00;;;;;;5114841;28;20191;-93
2022/04/14 09:24:49;;;;;;;30.15;21.83;;;24.60;1.00;;;;;;5115282;28;20420;-92
2022/04/14 09:27:28;;;;;;;27.70;20.45;;;24.60;1.00;;;;;;5116303;28;20187;-90
2022/04/14 09:29:59;;;;;;;30.48;20.75;;;24.60;1.00;;;;;;5115543;28;20243;-91
2022/04/14 09:32:32;;;;;;;34.20;24.73;;;24.60;1.00;;;;;;5114533;28;20191;-92
2022/04/14 09:35:05;;;;;;;31.67;23.55;;;24.70;1.00;;;;;;5114997;28;20199;-90
2022/04/14 09:37:36;;;;;;;30.67;22.35;;;24.80;1.00;;;;;;5114837;28;20176;-92
2022/04/14 09:40:07;;;;;;;27.08;21.42;;;25.00;1.00;;;;;;5118699;28;20264;-91
2022/04/14 09:42:38;;;;;;;29.80;21.55;;;25.00;1.00;;;;;;5118731;28;20168;-91
2022/04/14 09:45:20;;;;;;;30.25;22.00;;;25.10;1.00;;;;;;5118918;28;20187;-88
2022/04/14 09:47:48;;;;;;;29.63;22.20;;;25.10;1.00;;;;;;5119998;28;20240;-92
2022/04/14 09:50:30;;;;;;;30.20;22.75;;;25.10;1.00;;;;;;5119207;28;20191;-91
2022/04/14 09:53:05;;;;;;;30.13;22.60;;;25.10;1.00;;;;;;5119540;28;20183;-90
2022/04/14 09:55:35;;;;;;;34.38;21.17;;;25.20;1.00;;;;;;5119399;28;20179;-89
2022/04/14 09:58:14;;;;;;;29.00;22.30;;;25.30;1.00;;;;;;5119116;28;20222;-91
2022/04/14 10:00:46;;;;;;;32.05;22.60;;;25.50;1.00;;;;;;5118618;28;20207;-91
2022/04/14 10:03:18;;;;;;;29.92;21.00;;;25.60;1.00;;;;;;5118345;28;20182;-91
2022/04/14 10:05:46;;;;;;;28.77;22.10;;;25.70;1.00;;;;;;5118305;28;20203;-92
2022/04/14 10:08:16;;;;;;;30.10;21.65;;;25.80;1.00;;;;;;5118683;28;20207;-91
2022/04/14 10:10:44;;;;;;;26.67;20.17;;;25.80;1.00;;;;;;5119001;28;20190;-92
2022/04/14 10:13:13;;;;;;;28.23;20.85;;;25.80;1.00;;;;;;5118568;28;20203;-90
2022/04/14 10:15:43;;;;;;;28.90;21.05;;;25.80;1.00;;;;;;5118371;28;20202;-91
2022/04/14 10:18:12;;;;;;;27.58;21.30;;;25.90;1.00;;;;;;5118072;28;20636;-91
2022/04/14 10:20:42;;;;;;;28.40;20.90;;;25.90;1.00;;;;;;5118708;28;20237;-91
2022/04/14 10:23:11;;;;;;;29.15;20.08;;;25.90;1.00;;;;;;5118275;28;20216;-92
2022/04/14 10:25:42;;;;;;;28.63;20.55;;;26.00;1.00;;;;;;5118397;28;20191;-91
2022/04/14 10:28:13;;;;;;;26.73;20.73;;;26.10;1.00;;;;;;5118605;28;20242;-89
2022/04/14 10:30:43;;;;;;;31.15;20.90;;;26.10;1.00;;;;;;5118187;28;20198;-90
2022/04/14 10:33:13;;;;;;;29.58;21.02;;;26.10;1.00;;;;;;5119047;28;20187;-89
2022/04/14 10:35:44;;;;;;;28.30;21.27;;;26.10;1.00;;;;;;5117950;28;20187;-88
2022/04/14 10:38:15;;;;;;;22.67;15.95;;;26.10;1.00;;;;;;5118133;28;20188;-89
2022/04/14 10:40:49;;;;;;;21.48;15.48;;;25.90;1.00;;;;;;5118172;28;20187;-89
2022/04/14 10:43:23;;;;;;;20.80;15.73;;;25.60;1.00;;;;;;5118199;28;20195;-90
2022/04/14 10:45:54;;;;;;;22.65;16.83;;;25.20;1.00;;;;;;5117843;28;20187;-93
2022/04/14 10:48:32;;;;;;;33.25;25.13;;;24.80;1.00;;;;;;5118245;28;20248;-90
2022/04/14 10:51:22;;;;;;;24.45;18.63;;;24.40;1.00;;;;;;5116745;28;20190;-88
2022/04/14 10:53:52;;;;;;;23.23;16.90;;;24.20;1.00;;;;;;5117940;28;20226;-89
2022/04/14 10:56:45;;;;;;;32.53;23.45;;;23.90;1.00;;;;;;5118136;28;20196;-90
2022/04/14 10:59:14;;;;;;;29.08;19.58;;;23.80;1.00;;;;;;5103281;28;20204;-90
2022/04/14 11:02:04;;;;;;;27.63;18.65;;;23.70;1.00;;;;;;5117649;28;20206;-90
2022/04/14 11:04:37;;;;;;;19.60;15.38;;;23.60;1.00;;;;;;5117552;28;20226;-90
2022/04/14 11:07:15;;;;;;;21.02;14.15;;;23.50;1.00;;;;;;5117584;28;20245;-93
2022/04/14 11:09:54;;;;;;;20.48;14.05;;;23.60;1.00;;;;;;5117639;28;20223;-89
2022/04/14 11:12:25;;;;;;;21.45;13.57;;;23.50;1.00;;;;;;5117697;28;20195;-89
2022/04/14 11:15:00;;;;;;;20.85;14.25;;;23.40;1.00;;;;;;5117686;28;20184;-90
2022/04/14 11:18:04;;;;;;;17.33;13.95;;;23.30;1.00;;;;;;5117389;28;20235;-90
2022/04/14 11:20:57;;;;;;;18.10;13.18;;;23.20;1.00;;;;;;5117061;28;20188;-90
2022/04/14 11:23:30;;;;;;;16.70;13.23;;;23.10;1.00;;;;;;5116327;28;20211;-87
2022/04/14 11:26:12;;;;;;;16.65;13.73;;;22.90;1.00;;;;;;5116703;28;20207;-88
2022/04/14 11:28:43;;;;;;;18.25;13.82;;;22.80;1.00;;;;;;5116896;28;20217;-89
2022/04/14 11:31:25;;;;;;;20.02;14.07;;;22.60;1.00;;;;;;5116770;28;20201;-91
2022/04/14 11:33:58;;;;;;;18.27;13.02;;;22.50;1.00;;;;;;5117406;28;20195;-91
2022/04/14 11:36:29;;;;;;;16.98;11.82;;;22.60;1.00;;;;;;5116835;28;20198;-90
2022/04/14 11:39:01;;;;;;;16.42;12.57;;;22.60;1.00;;;;;;5116791;28;20219;-91
2022/04/14 11:41:33;;;;;;;15.48;12.23;;;22.80;1.00;;;;;;5116857;28;20202;-88
2022/04/14 11:44:05;;;;;;;16.08;13.00;;;22.80;1.00;;;;;;5117093;28;20172;-92
2022/04/14 11:46:37;;;;;;;17.50;12.50;;;23.00;1.00;;;;;;5116655;28;20195;-91
2022/04/14 11:49:05;;;;;;;16.63;12.45;;;23.10;1.00;;;;;;5117051;28;20216;-89
2022/04/14 11:51:33;;;;;;;18.02;12.02;;;23.10;1.00;;;;;;5116634;28;20199;-91
2022/04/14 11:54:01;;;;;;;17.15;12.05;;;23.10;1.00;;;;;;5116480;28;20198;-89
2022/04/14 11:56:29;;;;;;;14.48;11.43;;;23.20;1.00;;;;;;5116199;28;20217;-91
2022/04/14 11:58:57;;;;;;;18.38;12.65;;;23.20;1.00;;;;;;5116443;28;20199;-91
2022/04/14 12:01:26;;;;;;;15.68;11.77;;;23.20;1.00;;;;;;5116047;28;20203;-91
2022/04/14 12:03:56;;;;;;;15.60;11.45;;;23.00;1.00;;;;;;5116194;28;20207;-88
2022/04/14 12:06:23;;;;;;;13.55;11.95;;;22.70;1.00;;;;;;5116719;28;20225;-91
2022/04/14 12:08:55;;;;;;;11.98;9.38;;;22.70;1.00;;;;;;5116214;28;20211;-89
2022/04/14 12:11:26;;;;;;;8.43;5.78;;;22.60;1.00;;;;;;5115579;28;20201;-89
2022/04/14 12:13:54;;;;;;;5.80;4.50;;;22.60;1.00;;;;;;5115928;28;20187;-90
2022/04/14 12:16:22;;;;;;;6.57;3.65;;;22.50;1.00;;;;;;5116311;28;20222;-89
2022/04/14 12:18:55;;;;;;;6.63;3.25;;;22.40;1.00;;;;;;5115994;28;20179;-88
2022/04/14 12:21:24;;;;;;;7.93;3.10;;;22.40;1.00;;;;;;5116121;28;20180;-89
2022/04/14 12:23:53;;;;;;;3.85;2.70;;;22.40;1.00;;;;;;5116195;28;20179;-89
2022/04/14 12:26:21;;;;;;;7.30;3.08;;;22.30;1.00;;;;;;5116617;28;20210;-88
2022/04/14 12:28:53;;;;;;;5.80;3.70;;;22.30;1.00;;;;;;5116328;28;20211;-92
2022/04/14 12:31:28;;;;;;;4.85;3.10;;;22.30;1.00;;;;;;5115919;28;20579;-92
2022/04/14 12:33:58;;;;;;;4.80;2.33;;;22.30;1.00;;;;;;5116857;28;20111;-90
2022/04/14 12:36:37;;;;;;;4.93;3.38;;;22.30;1.00;;;;;;5116442;28;20244;-91
2022/04/14 12:39:22;;;;;;;6.22;4.75;;;22.20;1.00;;;;;;5115813;28;20185;-89
2022/04/14 12:41:50;;;;;;;7.75;4.82;;;22.20;1.00;;;;;;5116275;28;20176;-89
2022/04/14 12:44:22;;;;;;;8.63;4.97;;;22.20;1.00;;;;;;5115664;28;20275;-89
2022/04/14 12:46:54;;;;;;;7.22;4.50;;;22.30;1.00;;;;;;5115986;28;20203;-90